createdAt,value
2019-05-26T00:00:19.579Z,2.50
2019-05-26T00:01:19.572Z,2.20
2019-05-26T00:02:19.559Z,2.30
2019-05-26T00:03:19.553Z,2.30
2019-05-26T00:04:19.535Z,2.50
2019-05-26T00:05:19.533Z,2.20
2019-05-26T00:06:19.526Z,2.30
2019-05-26T00:07:30.279Z,2.30
2019-05-26T00:08:20.497Z,2.20
2019-05-26T00:09:19.484Z,2.20
2019-05-26T00:10:19.470Z,2.50
2019-05-26T00:11:19.458Z,2.60
2019-05-26T00:12:19.446Z,2.60
2019-05-26T00:13:19.446Z,2.30
2019-05-26T00:14:19.425Z,2.70
2019-05-26T00:15:19.414Z,2.70
2019-05-26T00:16:19.409Z,2.60
2019-05-26T00:17:19.391Z,2.50
2019-05-26T00:18:19.391Z,2.30
2019-05-26T00:19:19.384Z,2.30
2019-05-26T00:20:19.357Z,2.50
2019-05-26T00:21:19.377Z,2.70
2019-05-26T00:22:19.336Z,2.50
2019-05-26T00:23:19.340Z,2.20
2019-05-26T00:24:19.319Z,2.40
2019-05-26T00:25:19.307Z,2.40
2019-05-26T00:26:19.291Z,2.50
2019-05-26T00:27:19.281Z,2.10
2019-05-26T00:28:19.277Z,2.30
2019-05-26T00:29:19.259Z,2.50
2019-05-26T00:30:19.251Z,2.60
2019-05-26T00:31:19.244Z,2.30
2019-05-26T00:32:19.224Z,2.30
2019-05-26T00:33:19.223Z,2.30
2019-05-26T00:34:19.205Z,2.10
2019-05-26T00:35:19.194Z,2.50
2019-05-26T00:36:19.180Z,2.40
2019-05-26T00:37:19.172Z,2.50
2019-05-26T00:38:19.173Z,2.80
2019-05-26T00:39:19.152Z,2.60
2019-05-26T00:40:19.137Z,2.60
2019-05-26T00:41:19.131Z,2.40
2019-05-26T00:42:19.114Z,2.40
2019-05-26T00:43:19.140Z,2.80
2019-05-26T00:44:19.096Z,3.60
2019-05-26T00:45:19.082Z,3.10
2019-05-26T00:46:19.078Z,2.70
2019-05-26T00:47:19.060Z,2.60
2019-05-26T00:48:19.053Z,2.70
2019-05-26T00:49:19.051Z,2.80
2019-05-26T00:50:19.029Z,2.60
2019-05-26T00:51:19.040Z,2.60
2019-05-26T00:52:19.034Z,3.00
2019-05-26T00:53:18.998Z,2.70
2019-05-26T00:54:18.992Z,2.80
2019-05-26T00:55:18.972Z,2.80
2019-05-26T00:56:18.965Z,2.20
2019-05-26T00:57:18.954Z,2.70
2019-05-26T00:58:18.960Z,2.60
2019-05-26T00:59:18.942Z,2.70
2019-05-26T01:00:18.939Z,2.80
2019-05-26T01:01:18.907Z,2.50
2019-05-26T01:02:18.895Z,2.80
2019-05-26T01:03:18.886Z,2.60
2019-05-26T01:04:18.882Z,2.20
2019-05-26T01:05:18.862Z,2.40
2019-05-26T01:06:18.849Z,2.30
2019-05-26T01:07:18.839Z,2.70
2019-05-26T01:08:18.830Z,2.50
2019-05-26T01:09:18.827Z,2.50
2019-05-26T01:10:18.806Z,2.80
2019-05-26T01:11:18.796Z,2.50
2019-05-26T01:12:18.786Z,2.60
2019-05-26T01:13:18.773Z,2.80
2019-05-26T01:14:18.773Z,2.90
2019-05-26T01:15:18.750Z,2.50
2019-05-26T01:16:18.742Z,2.50
2019-05-26T01:17:18.728Z,2.60
2019-05-26T01:18:18.718Z,2.90
2019-05-26T01:19:18.720Z,2.60
2019-05-26T01:20:18.697Z,2.70
2019-05-26T01:21:18.695Z,2.40
2019-05-26T01:22:18.677Z,3.20
2019-05-26T01:23:18.661Z,2.60
2019-05-26T01:24:18.668Z,2.80
2019-05-26T01:25:18.642Z,2.40
2019-05-26T01:26:18.631Z,2.80
2019-05-26T01:27:18.623Z,2.90
2019-05-26T01:28:18.608Z,2.60
2019-05-26T01:29:18.606Z,2.80
2019-05-26T01:30:18.588Z,2.70
2019-05-26T01:31:18.576Z,2.50
2019-05-26T01:32:18.562Z,2.80
2019-05-26T01:33:18.553Z,2.80
2019-05-26T01:34:18.550Z,2.70
2019-05-26T01:35:18.543Z,2.60
2019-05-26T01:36:18.519Z,2.90
2019-05-26T01:37:18.508Z,2.50
2019-05-26T01:38:24.156Z,2.60
2019-05-26T01:39:19.506Z,2.40
2019-05-26T01:40:18.477Z,2.60
2019-05-26T01:41:18.476Z,2.30
2019-05-26T01:42:18.461Z,2.60
2019-05-26T01:43:18.441Z,2.90
2019-05-26T01:44:18.438Z,2.80
2019-05-26T01:45:18.421Z,2.60
2019-05-26T01:46:18.408Z,2.70
2019-05-26T01:47:18.411Z,2.50
2019-05-26T01:48:18.387Z,2.70
2019-05-26T01:49:18.389Z,2.40
2019-05-26T01:50:18.366Z,2.80
2019-05-26T01:51:18.361Z,2.70
2019-05-26T01:52:18.343Z,2.80
2019-05-26T01:53:18.333Z,2.20
2019-05-26T01:54:18.321Z,2.90
2019-05-26T01:55:18.320Z,2.70
2019-05-26T01:56:18.300Z,2.60
2019-05-26T01:57:18.293Z,2.80
2019-05-26T01:58:18.278Z,2.50
2019-05-26T01:59:18.269Z,2.70
2019-05-26T02:00:18.282Z,2.50
2019-05-26T02:01:18.244Z,2.90
2019-05-26T02:02:18.237Z,3.20
2019-05-26T02:03:18.222Z,2.40
2019-05-26T02:04:18.217Z,2.80
2019-05-26T02:05:18.215Z,2.80
2019-05-26T02:06:18.190Z,2.80
2019-05-26T02:07:18.181Z,3.10
2019-05-26T02:08:18.174Z,3.10
2019-05-26T02:09:18.156Z,3.00
2019-05-26T02:10:18.159Z,3.10
2019-05-26T02:11:18.135Z,2.90
2019-05-26T02:12:18.130Z,3.00
2019-05-26T02:13:18.115Z,2.90
2019-05-26T02:14:18.105Z,3.00
2019-05-26T02:15:18.109Z,2.60
2019-05-26T02:16:18.078Z,3.00
2019-05-26T02:17:18.067Z,2.50
2019-05-26T02:18:18.058Z,2.70
2019-05-26T02:19:18.114Z,2.40
2019-05-26T02:20:18.046Z,2.80
2019-05-26T02:21:18.028Z,2.90
2019-05-26T02:22:18.019Z,2.70
2019-05-26T02:23:18.002Z,2.80
2019-05-26T02:24:17.994Z,3.10
2019-05-26T02:25:17.991Z,2.80
2019-05-26T02:26:17.976Z,2.60
2019-05-26T02:27:17.990Z,2.70
2019-05-26T02:28:17.948Z,3.00
2019-05-26T02:29:17.955Z,3.10
2019-05-26T02:30:17.940Z,3.10
2019-05-26T02:31:17.916Z,3.20
2019-05-26T02:32:17.921Z,3.00
2019-05-26T02:33:17.943Z,2.90
2019-05-26T02:34:17.885Z,2.60
2019-05-26T02:35:17.881Z,2.80
2019-05-26T02:36:17.873Z,3.20
2019-05-26T02:37:17.853Z,2.90
2019-05-26T02:38:17.836Z,2.70
2019-05-26T02:39:17.827Z,2.80
2019-05-26T02:40:17.831Z,3.10
2019-05-26T02:41:17.809Z,2.90
2019-05-26T02:42:17.805Z,2.60
2019-05-26T02:43:17.801Z,3.00
2019-05-26T02:44:17.774Z,2.90
2019-05-26T02:45:17.773Z,3.00
2019-05-26T02:46:17.753Z,2.90
2019-05-26T02:47:17.742Z,3.10
2019-05-26T02:48:17.732Z,2.90
2019-05-26T02:49:17.727Z,3.00
2019-05-26T02:50:17.751Z,2.90
2019-05-26T02:51:17.708Z,3.30
2019-05-26T02:52:17.689Z,3.20
2019-05-26T02:53:17.675Z,3.00
2019-05-26T02:54:17.665Z,2.80
2019-05-26T02:55:17.654Z,2.90
2019-05-26T02:56:17.653Z,3.10
2019-05-26T02:57:17.631Z,3.20
2019-05-26T02:58:17.621Z,2.90
2019-05-26T02:59:17.614Z,3.00
2019-05-26T03:00:17.640Z,3.20
2019-05-26T03:01:17.597Z,2.70
2019-05-26T03:02:17.583Z,2.70
2019-05-26T03:03:17.654Z,2.60
2019-05-26T03:04:17.552Z,2.90
2019-05-26T03:05:17.548Z,2.90
2019-05-26T03:06:17.548Z,3.70
2019-05-26T03:07:17.522Z,3.50
2019-05-26T03:08:17.510Z,2.90
2019-05-26T03:09:23.370Z,3.10
2019-05-26T03:10:18.488Z,2.90
2019-05-26T03:11:17.489Z,3.00
2019-05-26T03:12:17.465Z,2.80
2019-05-26T03:13:17.461Z,3.40
2019-05-26T03:14:17.447Z,3.30
2019-05-26T03:15:17.434Z,3.40
2019-05-26T03:16:17.434Z,2.90
2019-05-26T03:17:17.417Z,2.90
2019-05-26T03:18:17.403Z,3.00
2019-05-26T03:19:17.395Z,3.00
2019-05-26T03:20:17.384Z,3.40
2019-05-26T03:21:17.380Z,3.50
2019-05-26T03:22:17.359Z,3.60
2019-05-26T03:23:17.357Z,3.10
2019-05-26T03:24:17.336Z,3.50
2019-05-26T03:25:17.327Z,3.10
2019-05-26T03:26:17.329Z,3.00
2019-05-26T03:27:17.306Z,3.10
2019-05-26T03:28:17.317Z,3.60
2019-05-26T03:29:17.290Z,2.80
2019-05-26T03:30:17.273Z,3.30
2019-05-26T03:31:17.289Z,3.00
2019-05-26T03:32:17.269Z,3.70
2019-05-26T03:33:17.271Z,3.80
2019-05-26T03:34:17.227Z,3.30
2019-05-26T03:35:17.246Z,3.20
2019-05-26T03:36:17.405Z,3.70
2019-05-26T03:37:17.195Z,3.00
2019-05-26T03:38:17.193Z,3.10
2019-05-26T03:39:17.173Z,3.80
2019-05-26T03:40:17.169Z,3.60
2019-05-26T03:41:17.152Z,3.40
2019-05-26T03:42:17.149Z,3.40
2019-05-26T03:43:17.128Z,3.40
2019-05-26T03:44:17.117Z,3.50
2019-05-26T03:45:17.107Z,3.10
2019-05-26T03:46:17.229Z,3.50
2019-05-26T03:47:17.353Z,3.30
2019-05-26T03:48:17.074Z,3.40
2019-05-26T03:49:17.062Z,3.10
2019-05-26T03:50:17.053Z,3.40
2019-05-26T03:51:17.058Z,3.50
2019-05-26T03:52:17.039Z,3.30
2019-05-26T03:53:17.020Z,3.80
2019-05-26T03:54:17.012Z,3.30
2019-05-26T03:55:17.010Z,3.60
2019-05-26T03:56:16.985Z,3.30
2019-05-26T03:57:16.984Z,3.80
2019-05-26T03:58:16.972Z,3.50
2019-05-26T03:59:16.982Z,3.80
2019-05-26T04:00:16.943Z,3.60
2019-05-26T04:01:16.942Z,3.50
2019-05-26T04:02:16.937Z,3.80
2019-05-26T04:03:16.911Z,3.70
2019-05-26T04:04:16.900Z,3.20
2019-05-26T04:05:16.887Z,3.90
2019-05-26T04:06:16.903Z,3.60
2019-05-26T04:07:16.877Z,3.40
2019-05-26T04:08:16.858Z,3.30
2019-05-26T04:09:16.847Z,3.40
2019-05-26T04:10:16.832Z,3.50
2019-05-26T04:11:16.821Z,3.00
2019-05-26T04:12:16.821Z,3.40
2019-05-26T04:13:16.802Z,3.50
2019-05-26T04:14:16.792Z,3.90
2019-05-26T04:15:16.779Z,3.30
2019-05-26T04:16:16.768Z,3.80
2019-05-26T04:17:16.772Z,3.70
2019-05-26T04:18:16.746Z,3.90
2019-05-26T04:19:16.747Z,3.40
2019-05-26T04:20:16.724Z,3.60
2019-05-26T04:21:16.715Z,3.50
2019-05-26T04:22:16.715Z,3.80
2019-05-26T04:23:16.692Z,3.90
2019-05-26T04:24:16.678Z,3.80
2019-05-26T04:25:16.671Z,3.80
2019-05-26T04:26:16.665Z,3.40
2019-05-26T04:27:16.678Z,3.60
2019-05-26T04:28:16.637Z,3.80
2019-05-26T04:29:16.627Z,3.70
2019-05-26T04:30:16.613Z,4.10
2019-05-26T04:31:16.632Z,3.70
2019-05-26T04:32:16.602Z,3.40
2019-05-26T04:33:16.594Z,3.90
2019-05-26T04:34:16.577Z,3.70
2019-05-26T04:35:16.565Z,4.00
2019-05-26T04:36:16.548Z,3.70
2019-05-26T04:37:16.544Z,4.10
2019-05-26T04:38:16.530Z,3.80
2019-05-26T04:39:16.516Z,3.60
2019-05-26T04:40:26.477Z,4.00
2019-05-26T04:41:17.492Z,3.50
2019-05-26T04:42:16.489Z,4.30
2019-05-26T04:43:16.474Z,3.80
2019-05-26T04:44:16.470Z,3.90
2019-05-26T04:45:16.476Z,4.10
2019-05-26T04:46:16.440Z,4.00
2019-05-26T04:47:16.438Z,3.70
2019-05-26T04:48:16.418Z,3.70
2019-05-26T04:49:16.410Z,4.00
2019-05-26T04:50:16.412Z,3.80
2019-05-26T04:51:16.459Z,4.10
2019-05-26T04:52:16.389Z,3.80
2019-05-26T04:53:16.361Z,4.20
2019-05-26T04:54:16.349Z,4.30
2019-05-26T04:55:16.348Z,3.80
2019-05-26T04:56:16.337Z,4.10
2019-05-26T04:57:16.362Z,4.70
2019-05-26T04:58:16.317Z,3.70
2019-05-26T04:59:16.295Z,4.10
2019-05-26T05:00:16.283Z,3.90
2019-05-26T05:01:16.275Z,3.90
2019-05-26T05:02:16.261Z,4.10
2019-05-26T05:03:16.263Z,4.10
2019-05-26T05:04:16.241Z,3.60
2019-05-26T05:05:16.230Z,3.90
2019-05-26T05:06:16.218Z,4.30
2019-05-26T05:07:16.208Z,3.80
2019-05-26T05:08:16.209Z,4.00
2019-05-26T05:09:16.191Z,4.30
2019-05-26T05:10:16.176Z,4.00
2019-05-26T05:11:16.164Z,3.70
2019-05-26T05:12:16.153Z,4.00
2019-05-26T05:13:16.154Z,4.30
2019-05-26T05:14:16.133Z,4.00
2019-05-26T05:15:16.121Z,3.90
2019-05-26T05:16:16.108Z,3.70
2019-05-26T05:17:16.136Z,3.90
2019-05-26T05:18:16.094Z,3.40
2019-05-26T05:19:16.075Z,4.30
2019-05-26T05:20:16.064Z,4.30
2019-05-26T05:21:16.054Z,4.00
2019-05-26T05:22:16.045Z,4.00
2019-05-26T05:23:16.045Z,4.40
2019-05-26T05:24:16.021Z,4.40
2019-05-26T05:25:16.010Z,4.50
2019-05-26T05:26:16.010Z,3.90
2019-05-26T05:27:15.989Z,4.40
2019-05-26T05:28:15.989Z,4.40
2019-05-26T05:29:15.968Z,4.00
2019-05-26T05:30:15.978Z,4.30
2019-05-26T05:31:15.944Z,4.10
2019-05-26T05:32:15.931Z,4.00
2019-05-26T05:33:15.932Z,4.50
2019-05-26T05:34:15.912Z,4.30
2019-05-26T05:35:15.903Z,4.00
2019-05-26T05:36:15.896Z,4.20
2019-05-26T05:37:16.415Z,4.40
2019-05-26T05:38:15.877Z,4.10
2019-05-26T05:39:15.864Z,4.30
2019-05-26T05:40:15.849Z,4.20
2019-05-26T05:41:15.833Z,4.70
2019-05-26T05:42:15.823Z,4.60
2019-05-26T05:43:15.820Z,4.50
2019-05-26T05:44:15.811Z,4.70
2019-05-26T05:45:15.794Z,4.60
2019-05-26T05:46:15.784Z,4.40
2019-05-26T05:47:15.769Z,4.40
2019-05-26T05:48:15.767Z,4.60
2019-05-26T05:49:15.746Z,4.10
2019-05-26T05:50:15.734Z,4.40
2019-05-26T05:51:15.725Z,4.10
2019-05-26T05:52:15.718Z,4.30
2019-05-26T05:53:15.712Z,3.90
2019-05-26T05:54:15.718Z,4.30
2019-05-26T05:55:15.680Z,4.00
2019-05-26T05:56:15.673Z,4.30
2019-05-26T05:57:15.661Z,4.20
2019-05-26T05:58:15.660Z,4.30
2019-05-26T05:59:15.637Z,3.90
2019-05-26T06:00:15.625Z,3.90
2019-05-26T06:01:15.615Z,4.30
2019-05-26T06:02:15.604Z,3.70
2019-05-26T06:03:18.601Z,4.20
2019-05-26T06:04:15.578Z,4.20
2019-05-26T06:05:15.569Z,4.30
2019-05-26T06:06:15.559Z,3.90
2019-05-26T06:07:15.548Z,4.10
2019-05-26T06:08:15.547Z,3.70
2019-05-26T06:09:15.525Z,3.80
2019-05-26T06:10:15.514Z,3.70
2019-05-26T06:11:17.167Z,3.80
2019-05-26T06:12:15.494Z,3.50
2019-05-26T06:13:15.493Z,3.40
2019-05-26T06:14:15.486Z,4.20
2019-05-26T06:15:16.550Z,4.00
2019-05-26T06:16:15.451Z,3.90
2019-05-26T06:17:15.439Z,3.90
2019-05-26T06:18:15.428Z,3.80
2019-05-26T06:19:15.428Z,3.80
2019-05-26T06:20:15.413Z,3.70
2019-05-26T06:21:15.433Z,3.30
2019-05-26T06:22:15.400Z,3.20
2019-05-26T06:23:15.372Z,3.60
2019-05-26T06:24:15.378Z,3.70
2019-05-26T06:25:15.352Z,3.40
2019-05-26T06:26:15.347Z,3.70
2019-05-26T06:27:15.328Z,3.40
2019-05-26T06:28:15.317Z,4.80
2019-05-26T06:29:15.314Z,3.70
2019-05-26T06:30:15.296Z,3.10
2019-05-26T06:31:15.312Z,3.40
2019-05-26T06:32:15.507Z,3.00
2019-05-26T06:33:15.263Z,3.60
2019-05-26T06:34:15.266Z,3.20
2019-05-26T06:35:15.241Z,3.70
2019-05-26T06:36:15.229Z,3.70
2019-05-26T06:37:15.219Z,3.40
2019-05-26T06:38:15.209Z,3.10
2019-05-26T06:39:15.208Z,2.80
2019-05-26T06:40:15.188Z,3.20
2019-05-26T06:41:30.431Z,3.30
2019-05-26T06:42:16.165Z,3.30
2019-05-26T06:43:15.154Z,3.30
2019-05-26T06:44:15.153Z,2.70
2019-05-26T06:45:15.129Z,3.20
2019-05-26T06:46:15.118Z,3.40
2019-05-26T06:47:15.109Z,3.20
2019-05-26T06:48:15.097Z,2.90
2019-05-26T06:49:15.143Z,3.10
2019-05-26T06:50:15.074Z,3.00
2019-05-26T06:51:15.065Z,2.90
2019-05-26T06:52:15.052Z,2.90
2019-05-26T06:53:15.041Z,3.20
2019-05-26T06:54:15.041Z,2.90
2019-05-26T06:55:15.026Z,2.70
2019-05-26T06:56:15.025Z,3.10
2019-05-26T06:57:14.997Z,2.90
2019-05-26T06:58:14.986Z,2.80
2019-05-26T06:59:14.989Z,2.90
2019-05-26T07:00:14.969Z,2.80
2019-05-26T07:01:14.957Z,3.20
2019-05-26T07:02:14.946Z,3.20
2019-05-26T07:03:14.934Z,2.80
2019-05-26T07:04:14.933Z,2.70
2019-05-26T07:05:18.237Z,2.70
2019-05-26T07:06:14.950Z,2.70
2019-05-26T07:07:14.889Z,2.40
2019-05-26T07:08:14.879Z,3.00
2019-05-26T07:09:14.879Z,2.60
2019-05-26T07:10:14.857Z,2.40
2019-05-26T07:11:14.850Z,2.50
2019-05-26T07:12:14.834Z,2.30
2019-05-26T07:13:14.822Z,2.50
2019-05-26T07:14:14.822Z,2.10
2019-05-26T07:15:14.802Z,2.50
2019-05-26T07:16:14.790Z,2.50
2019-05-26T07:17:14.781Z,2.80
2019-05-26T07:18:14.769Z,2.10
2019-05-26T07:19:14.765Z,2.20
2019-05-26T07:20:14.745Z,2.50
2019-05-26T07:21:14.736Z,2.60
2019-05-26T07:22:14.722Z,2.40
2019-05-26T07:23:14.716Z,2.20
2019-05-26T07:24:14.714Z,2.10
2019-05-26T07:25:14.694Z,2.40
2019-05-26T07:26:14.681Z,2.20
2019-05-26T07:27:14.667Z,2.10
2019-05-26T07:28:14.656Z,2.10
2019-05-26T07:29:14.683Z,2.00
2019-05-26T07:30:14.639Z,2.20
2019-05-26T07:31:14.628Z,1.90
2019-05-26T07:32:14.674Z,1.80
2019-05-26T07:33:14.602Z,2.00
2019-05-26T07:34:14.619Z,1.90
2019-05-26T07:35:14.593Z,2.00
2019-05-26T07:36:14.576Z,1.90
2019-05-26T07:37:14.557Z,1.80
2019-05-26T07:38:14.554Z,1.90
2019-05-26T07:39:14.537Z,1.90
2019-05-26T07:40:14.542Z,1.80
2019-05-26T07:41:14.514Z,2.10
2019-05-26T07:42:14.505Z,1.80
2019-05-26T07:43:14.495Z,1.70
2019-05-26T07:44:14.483Z,1.70
2019-05-26T07:45:14.484Z,1.70
2019-05-26T07:46:14.460Z,1.80
2019-05-26T07:47:14.456Z,1.90
2019-05-26T07:48:14.444Z,1.80
2019-05-26T07:49:14.439Z,2.10
2019-05-26T07:50:14.426Z,1.80
2019-05-26T07:51:14.405Z,1.90
2019-05-26T07:52:14.397Z,1.80
2019-05-26T07:53:14.383Z,1.60
2019-05-26T07:54:25.172Z,1.50
2019-05-26T07:55:15.370Z,1.60
2019-05-26T07:56:14.398Z,1.50
2019-05-26T07:57:14.339Z,1.50
2019-05-26T07:58:14.335Z,1.50
2019-05-26T07:59:14.321Z,1.70
2019-05-26T08:00:14.319Z,1.60
2019-05-26T08:01:14.299Z,1.70
2019-05-26T08:02:14.284Z,1.50
2019-05-26T08:03:14.276Z,2.00
2019-05-26T08:04:14.262Z,1.90
2019-05-26T08:05:14.263Z,1.80
2019-05-26T08:06:14.240Z,1.60
2019-05-26T08:07:14.229Z,1.60
2019-05-26T08:08:14.221Z,1.60
2019-05-26T08:09:14.210Z,1.60
2019-05-26T08:10:14.206Z,1.40
2019-05-26T08:11:14.188Z,1.20
2019-05-26T08:12:25.412Z,1.70
2019-05-26T08:13:15.164Z,1.30
2019-05-26T08:14:14.164Z,1.50
2019-05-26T08:15:14.153Z,1.80
2019-05-26T08:16:14.133Z,1.50
2019-05-26T08:17:14.123Z,2.20
2019-05-26T08:18:14.111Z,1.50
2019-05-26T08:19:14.098Z,1.80
2019-05-26T08:20:14.099Z,1.60
2019-05-26T08:21:14.083Z,1.70
2019-05-26T08:22:14.074Z,1.40
2019-05-26T08:23:14.055Z,1.70
2019-05-26T08:24:14.045Z,1.80
2019-05-26T08:25:14.048Z,1.80
2019-05-26T08:26:14.021Z,2.10
2019-05-26T08:27:14.013Z,1.80
2019-05-26T08:28:14.011Z,1.80
2019-05-26T08:29:13.989Z,1.90
2019-05-26T08:30:13.997Z,1.90
2019-05-26T08:31:13.967Z,1.90
2019-05-26T08:32:15.172Z,1.90
2019-05-26T08:33:13.945Z,1.90
2019-05-26T08:34:13.935Z,2.00
2019-05-26T08:35:13.939Z,1.70
2019-05-26T08:36:13.926Z,1.50
2019-05-26T08:37:13.905Z,1.80
2019-05-26T08:38:13.895Z,1.50
2019-05-26T08:39:13.897Z,1.60
2019-05-26T08:40:13.877Z,1.70
2019-05-26T08:41:13.856Z,1.80
2019-05-26T08:42:26.371Z,1.80
2019-05-26T08:43:14.838Z,1.70
2019-05-26T08:44:13.828Z,1.50
2019-05-26T08:45:13.812Z,1.80
2019-05-26T08:46:13.836Z,1.40
2019-05-26T08:47:13.792Z,1.80
2019-05-26T08:48:13.824Z,1.90
2019-05-26T08:49:13.773Z,1.60
2019-05-26T08:50:13.757Z,1.80
2019-05-26T08:51:13.759Z,1.50
2019-05-26T08:52:13.737Z,1.50
2019-05-26T08:53:13.728Z,1.60
2019-05-26T08:54:13.714Z,1.80
2019-05-26T08:55:13.708Z,1.90
2019-05-26T08:56:13.701Z,1.40
2019-05-26T08:57:13.685Z,1.80
2019-05-26T08:58:13.677Z,1.50
2019-05-26T08:59:13.662Z,1.60
2019-05-26T09:00:13.651Z,1.30
2019-05-26T09:01:13.649Z,1.80
2019-05-26T09:02:13.629Z,1.90
2019-05-26T09:03:13.621Z,1.60
2019-05-26T09:04:13.606Z,1.70
2019-05-26T09:05:13.600Z,1.80
2019-05-26T09:06:13.594Z,1.60
2019-05-26T09:07:13.574Z,1.80
2019-05-26T09:08:13.563Z,1.60
2019-05-26T09:09:13.551Z,1.60
2019-05-26T09:10:13.543Z,1.60
2019-05-26T09:11:13.539Z,1.50
2019-05-26T09:12:13.519Z,1.40
2019-05-26T09:13:13.510Z,1.50
2019-05-26T09:14:13.503Z,1.50
2019-05-26T09:15:13.494Z,1.50
2019-05-26T09:16:13.485Z,1.60
2019-05-26T09:17:13.465Z,1.40
2019-05-26T09:18:13.475Z,1.60
2019-05-26T09:19:13.444Z,1.30
2019-05-26T09:20:13.432Z,1.60
2019-05-26T09:21:13.433Z,1.50
2019-05-26T09:22:13.413Z,1.70
2019-05-26T09:23:13.403Z,1.70
2019-05-26T09:24:13.441Z,1.70
2019-05-26T09:25:13.380Z,1.60
2019-05-26T09:26:13.378Z,1.60
2019-05-26T09:27:13.358Z,1.40
2019-05-26T09:28:13.347Z,1.60
2019-05-26T09:29:13.336Z,1.50
2019-05-26T09:30:13.336Z,1.50
2019-05-26T09:31:13.353Z,1.80
2019-05-26T09:32:13.307Z,1.70
2019-05-26T09:33:13.294Z,1.50
2019-05-26T09:34:13.283Z,1.60
2019-05-26T09:35:13.273Z,1.70
2019-05-26T09:36:13.273Z,1.50
2019-05-26T09:37:13.256Z,1.80
2019-05-26T09:38:13.243Z,1.60
2019-05-26T09:39:13.230Z,1.60
2019-05-26T09:40:13.230Z,1.80
2019-05-26T09:41:13.218Z,1.60
2019-05-26T09:42:13.204Z,1.80
2019-05-26T09:43:16.529Z,2.00
2019-05-26T09:44:13.181Z,1.70
2019-05-26T09:45:13.207Z,1.90
2019-05-26T09:46:13.168Z,1.80
2019-05-26T09:47:13.148Z,2.10
2019-05-26T09:48:13.137Z,1.80
2019-05-26T09:49:13.123Z,1.60
2019-05-26T09:50:13.113Z,1.90
2019-05-26T09:51:13.152Z,1.80
2019-05-26T09:52:13.095Z,1.50
2019-05-26T09:53:13.097Z,1.90
2019-05-26T09:54:13.070Z,1.50
2019-05-26T09:55:13.060Z,1.50
2019-05-26T09:56:13.047Z,1.60
2019-05-26T09:57:13.048Z,1.80
2019-05-26T09:58:13.030Z,1.70
2019-05-26T09:59:13.015Z,1.60
2019-05-26T10:00:16.013Z,1.90
2019-05-26T10:01:13.017Z,1.80
2019-05-26T10:02:13.006Z,1.70
2019-05-26T10:03:12.976Z,1.80
2019-05-26T10:04:12.964Z,1.70
2019-05-26T10:05:12.951Z,1.80
2019-05-26T10:06:12.982Z,1.80
2019-05-26T10:07:15.834Z,1.60
2019-05-26T10:08:12.920Z,1.70
2019-05-26T10:09:12.909Z,1.70
2019-05-26T10:10:12.918Z,2.00
2019-05-26T10:11:12.890Z,2.20
2019-05-26T10:12:12.889Z,2.10
2019-05-26T10:13:12.870Z,2.10
2019-05-26T10:14:12.856Z,2.00
2019-05-26T10:15:12.845Z,2.10
2019-05-26T10:16:12.835Z,2.40
2019-05-26T10:17:12.835Z,2.10
2019-05-26T10:18:12.816Z,1.90
2019-05-26T10:19:12.818Z,2.50
2019-05-26T10:20:12.790Z,2.40
2019-05-26T10:21:12.813Z,2.40
2019-05-26T10:22:12.780Z,2.20
2019-05-26T10:23:12.758Z,2.50
2019-05-26T10:24:12.757Z,2.80
2019-05-26T10:25:12.741Z,2.50
2019-05-26T10:26:12.725Z,2.10
2019-05-26T10:27:12.731Z,2.20
2019-05-26T10:28:12.711Z,2.50
2019-05-26T10:29:12.761Z,2.10
2019-05-26T10:30:12.684Z,2.30
2019-05-26T10:31:12.672Z,2.30
2019-05-26T10:32:12.672Z,2.00
2019-05-26T10:33:12.649Z,2.40
2019-05-26T10:34:13.771Z,2.50
2019-05-26T10:35:12.627Z,2.40
2019-05-26T10:36:12.621Z,2.50
2019-05-26T10:37:12.637Z,2.00
2019-05-26T10:38:12.597Z,2.60
2019-05-26T10:39:12.587Z,2.60
2019-05-26T10:40:12.573Z,2.30
2019-05-26T10:41:12.566Z,2.00
2019-05-26T10:42:12.563Z,2.40
2019-05-26T10:43:12.543Z,2.60
2019-05-26T10:44:12.533Z,2.50
2019-05-26T10:45:12.521Z,2.80
2019-05-26T10:46:12.524Z,2.60
2019-05-26T10:47:12.514Z,2.60
2019-05-26T10:48:12.487Z,2.70
2019-05-26T10:49:12.480Z,2.50
2019-05-26T10:50:12.465Z,3.30
2019-05-26T10:51:12.456Z,2.70
2019-05-26T10:52:12.452Z,2.90
2019-05-26T10:53:12.438Z,2.40
2019-05-26T10:54:12.424Z,2.50
2019-05-26T10:55:12.421Z,2.80
2019-05-26T10:56:12.409Z,2.70
2019-05-26T10:57:13.265Z,2.70
2019-05-26T10:58:12.497Z,2.70
2019-05-26T10:59:12.369Z,2.30
2019-05-26T11:00:12.358Z,2.70
2019-05-26T11:01:12.345Z,2.60
2019-05-26T11:02:12.840Z,2.30
2019-05-26T11:03:12.363Z,2.50
2019-05-26T11:04:12.329Z,2.60
2019-05-26T11:05:12.309Z,2.80
2019-05-26T11:06:12.294Z,2.60
2019-05-26T11:07:12.321Z,2.50
2019-05-26T11:08:12.283Z,2.80
2019-05-26T11:09:12.260Z,3.70
2019-05-26T11:10:12.247Z,2.70
2019-05-26T11:11:12.238Z,2.70
2019-05-26T11:12:12.229Z,2.50
2019-05-26T11:13:12.225Z,2.80
2019-05-26T11:14:12.208Z,2.70
2019-05-26T11:15:12.193Z,2.50
2019-05-26T11:16:12.184Z,2.70
2019-05-26T11:17:12.183Z,2.50
2019-05-26T11:18:12.177Z,2.70
2019-05-26T11:19:12.151Z,2.40
2019-05-26T11:20:12.139Z,3.30
2019-05-26T11:21:12.625Z,2.40
2019-05-26T11:22:12.117Z,2.70
2019-05-26T11:23:12.120Z,2.80
2019-05-26T11:24:12.168Z,2.60
2019-05-26T11:25:12.087Z,2.70
2019-05-26T11:26:12.072Z,3.10
2019-05-26T11:27:13.404Z,2.50
2019-05-26T11:28:12.060Z,2.80
2019-05-26T11:29:12.039Z,2.60
2019-05-26T11:30:12.032Z,2.80
2019-05-26T11:31:12.022Z,2.40
2019-05-26T11:32:12.009Z,2.30
2019-05-26T11:33:12.011Z,2.30
2019-05-26T11:34:11.987Z,2.60
2019-05-26T11:35:11.982Z,2.20
2019-05-26T11:36:11.964Z,2.80
2019-05-26T11:37:11.973Z,2.20
2019-05-26T11:38:11.952Z,2.30
2019-05-26T11:39:11.936Z,2.50
2019-05-26T11:40:11.925Z,2.60
2019-05-26T11:41:11.923Z,2.20
2019-05-26T11:42:13.761Z,2.40
2019-05-26T11:43:16.630Z,2.50
2019-05-26T11:44:18.101Z,2.40
2019-05-26T11:45:12.867Z,2.50
2019-05-26T11:46:11.858Z,2.20
2019-05-26T11:47:11.851Z,2.40
2019-05-26T11:48:11.847Z,2.30
2019-05-26T11:49:11.855Z,1.90
2019-05-26T11:50:11.812Z,2.10
2019-05-26T11:51:11.802Z,2.40
2019-05-26T11:52:11.790Z,2.70
2019-05-26T11:53:11.790Z,2.20
2019-05-26T11:54:11.770Z,2.60
2019-05-26T11:55:11.761Z,2.30
2019-05-26T11:56:11.778Z,2.20
2019-05-26T11:57:11.739Z,2.30
2019-05-26T11:58:11.735Z,2.20
2019-05-26T11:59:11.715Z,2.40
2019-05-26T12:00:11.745Z,2.20
2019-05-26T12:01:11.696Z,2.40
2019-05-26T12:02:11.681Z,2.20
2019-05-26T12:03:11.697Z,1.90
2019-05-26T12:04:11.675Z,1.90
2019-05-26T12:05:11.653Z,2.40
2019-05-26T12:06:11.696Z,2.30
2019-05-26T12:07:11.716Z,2.10
2019-05-26T12:08:11.626Z,2.20
2019-05-26T12:09:11.618Z,2.10
2019-05-26T12:10:14.128Z,2.40
2019-05-26T12:11:11.587Z,2.20
2019-05-26T12:12:11.575Z,2.40
2019-05-26T12:13:11.840Z,2.50
2019-05-26T12:14:12.295Z,2.90
2019-05-26T12:15:11.541Z,2.40
2019-05-26T12:16:11.531Z,2.50
2019-05-26T12:17:11.517Z,2.10
2019-05-26T12:18:11.542Z,2.30
2019-05-26T12:19:11.500Z,2.40
2019-05-26T12:20:11.489Z,2.10
2019-05-26T12:21:11.475Z,2.30
2019-05-26T12:22:11.503Z,2.10
2019-05-26T12:23:11.453Z,2.20
2019-05-26T12:24:11.860Z,2.20
2019-05-26T12:25:11.434Z,2.10
2019-05-26T12:26:11.420Z,2.10
2019-05-26T12:27:11.410Z,2.00
2019-05-26T12:28:11.425Z,2.40
2019-05-26T12:29:11.396Z,2.70
2019-05-26T12:30:11.383Z,2.70
2019-05-26T12:31:11.373Z,2.50
2019-05-26T12:32:11.362Z,2.60
2019-05-26T12:33:11.355Z,2.50
2019-05-26T12:34:11.344Z,2.20
2019-05-26T12:35:11.322Z,2.10
2019-05-26T12:36:11.313Z,2.20
2019-05-26T12:37:11.304Z,2.40
2019-05-26T12:38:11.292Z,2.30
2019-05-26T12:39:11.288Z,2.70
2019-05-26T12:40:11.269Z,2.70
2019-05-26T12:41:11.258Z,2.20
2019-05-26T12:42:11.245Z,2.70
2019-05-26T12:43:11.303Z,2.30
2019-05-26T12:44:11.243Z,2.70
2019-05-26T12:45:11.217Z,2.20
2019-05-26T12:46:11.201Z,2.20
2019-05-26T12:47:11.191Z,2.70
2019-05-26T12:48:11.188Z,2.40
2019-05-26T12:49:11.179Z,2.70
2019-05-26T12:50:11.160Z,2.20
2019-05-26T12:51:11.148Z,2.50
2019-05-26T12:52:11.146Z,2.50
2019-05-26T12:53:11.126Z,2.20
2019-05-26T12:54:11.127Z,2.30
2019-05-26T12:55:11.109Z,2.50
2019-05-26T12:56:11.093Z,2.20
2019-05-26T12:57:11.085Z,1.90
2019-05-26T12:58:11.073Z,2.30
2019-05-26T12:59:11.069Z,2.40
2019-05-26T13:00:11.048Z,2.50
2019-05-26T13:01:11.042Z,2.00
2019-05-26T13:02:11.026Z,2.40
2019-05-26T13:03:11.019Z,2.30
2019-05-26T13:04:11.017Z,2.50
2019-05-26T13:05:10.998Z,2.40
2019-05-26T13:06:11.017Z,2.20
2019-05-26T13:07:10.971Z,2.40
2019-05-26T13:08:10.960Z,2.00
2019-05-26T13:09:10.959Z,1.80
2019-05-26T13:10:10.939Z,1.80
2019-05-26T13:11:10.927Z,1.90
2019-05-26T13:12:10.921Z,2.00
2019-05-26T13:13:10.908Z,2.30
2019-05-26T13:14:10.906Z,2.00
2019-05-26T13:15:10.912Z,1.80
2019-05-26T13:16:10.877Z,1.90
2019-05-26T13:17:10.866Z,1.80
2019-05-26T13:18:11.819Z,1.90